sensor_id;sensor_type;location;lat;lon;timestamp;P1;durP1;ratioP1;P2;durP2;ratioP2
34695;SDS011;20918;51.138;17.370;2023-02-04T00:02:58;7.70;;;1.70;;
34695;SDS011;20918;51.138;17.370;2023-02-04T00:06:08;5.70;;;1.50;;
34695;SDS011;20918;51.138;17.370;2023-02-04T00:09:16;5.10;;;2.00;;
34695;SDS011;20918;51.138;17.370;2023-02-04T00:12:18;5.10;;;2.00;;
34695;SDS011;20918;51.138;17.370;2023-02-04T00:15:20;5.00;;;2.00;;
34695;SDS011;20918;51.138;17.370;2023-02-04T00:18:24;4.20;;;1.70;;
34695;SDS011;20918;51.138;17.370;2023-02-04T00:21:26;2.60;;;1.30;;
34695;SDS011;20918;51.138;17.370;2023-02-04T00:24:28;4.40;;;1.70;;
34695;SDS011;20918;51.138;17.370;2023-02-04T00:27:32;2.90;;;1.40;;
34695;SDS011;20918;51.138;17.370;2023-02-04T00:30:39;4.30;;;1.50;;
34695;SDS011;20918;51.138;17.370;2023-02-04T00:33:56;1.90;;;1.50;;
34695;SDS011;20918;51.138;17.370;2023-02-04T00:37:01;2.50;;;1.80;;
34695;SDS011;20918;51.138;17.370;2023-02-04T00:40:05;1.50;;;1.40;;
34695;SDS011;20918;51.138;17.370;2023-02-04T00:43:13;2.10;;;1.50;;
34695;SDS011;20918;51.138;17.370;2023-02-04T00:49:16;1.60;;;1.40;;
34695;SDS011;20918;51.138;17.370;2023-02-04T00:52:18;2.10;;;1.50;;
34695;SDS011;20918;51.138;17.370;2023-02-04T00:55:20;2.10;;;1.60;;
34695;SDS011;20918;51.138;17.370;2023-02-04T00:58:25;3.80;;;2.00;;
34695;SDS011;20918;51.138;17.370;2023-02-04T01:01:31;1.80;;;1.70;;
34695;SDS011;20918;51.138;17.370;2023-02-04T01:04:34;2.50;;;2.20;;
34695;SDS011;20918;51.138;17.370;2023-02-04T01:07:46;4.00;;;2.20;;
34695;SDS011;20918;51.138;17.370;2023-02-04T01:10:52;2.40;;;2.00;;
34695;SDS011;20918;51.138;17.370;2023-02-04T01:14:09;2.60;;;2.20;;
34695;SDS011;20918;51.138;17.370;2023-02-04T01:17:12;3.00;;;2.60;;
34695;SDS011;20918;51.138;17.370;2023-02-04T01:20:20;4.60;;;2.30;;
34695;SDS011;20918;51.138;17.370;2023-02-04T01:23:26;3.90;;;2.10;;
34695;SDS011;20918;51.138;17.370;2023-02-04T01:29:33;2.90;;;2.30;;
34695;SDS011;20918;51.138;17.370;2023-02-04T01:32:35;2.80;;;2.50;;
34695;SDS011;20918;51.138;17.370;2023-02-04T01:35:36;4.80;;;2.30;;
34695;SDS011;20918;51.138;17.370;2023-02-04T01:38:37;3.60;;;2.80;;
34695;SDS011;20918;51.138;17.370;2023-02-04T01:41:43;6.40;;;4.00;;
34695;SDS011;20918;51.138;17.370;2023-02-04T01:44:50;6.00;;;5.00;;
34695;SDS011;20918;51.138;17.370;2023-02-04T01:47:55;9.60;;;7.60;;
34695;SDS011;20918;51.138;17.370;2023-02-04T01:54:03;15.10;;;10.70;;
34695;SDS011;20918;51.138;17.370;2023-02-04T01:57:08;16.10;;;11.60;;
34695;SDS011;20918;51.138;17.370;2023-02-04T02:00:15;16.20;;;12.00;;
34695;SDS011;20918;51.138;17.370;2023-02-04T02:03:19;17.00;;;12.30;;
34695;SDS011;20918;51.138;17.370;2023-02-04T02:06:20;16.00;;;11.40;;
34695;SDS011;20918;51.138;17.370;2023-02-04T02:09:23;16.60;;;12.20;;
34695;SDS011;20918;51.138;17.370;2023-02-04T02:12:26;15.50;;;11.10;;
34695;SDS011;20918;51.138;17.370;2023-02-04T02:15:27;19.40;;;13.20;;
34695;SDS011;20918;51.138;17.370;2023-02-04T02:18:28;18.70;;;14.20;;
34695;SDS011;20918;51.138;17.370;2023-02-04T02:21:43;19.80;;;14.10;;
34695;SDS011;20918;51.138;17.370;2023-02-04T02:24:50;17.60;;;12.90;;
34695;SDS011;20918;51.138;17.370;2023-02-04T02:27:53;17.50;;;12.00;;
34695;SDS011;20918;51.138;17.370;2023-02-04T02:30:58;15.10;;;10.10;;
34695;SDS011;20918;51.138;17.370;2023-02-04T02:34:03;15.80;;;10.90;;
34695;SDS011;20918;51.138;17.370;2023-02-04T02:37:06;18.20;;;11.80;;
34695;SDS011;20918;51.138;17.370;2023-02-04T02:40:10;16.20;;;11.20;;
34695;SDS011;20918;51.138;17.370;2023-02-04T02:43:16;14.90;;;10.30;;
34695;SDS011;20918;51.138;17.370;2023-02-04T02:46:22;13.50;;;9.50;;
34695;SDS011;20918;51.138;17.370;2023-02-04T02:49:26;11.70;;;8.60;;
34695;SDS011;20918;51.138;17.370;2023-02-04T02:52:30;14.70;;;9.20;;
34695;SDS011;20918;51.138;17.370;2023-02-04T02:55:31;9.80;;;8.20;;
34695;SDS011;20918;51.138;17.370;2023-02-04T02:58:33;10.80;;;7.30;;
34695;SDS011;20918;51.138;17.370;2023-02-04T03:01:40;11.00;;;7.90;;
34695;SDS011;20918;51.138;17.370;2023-02-04T03:04:44;8.40;;;6.60;;
34695;SDS011;20918;51.138;17.370;2023-02-04T03:07:57;8.90;;;6.60;;
34695;SDS011;20918;51.138;17.370;2023-02-04T03:11:02;7.50;;;5.50;;
34695;SDS011;20918;51.138;17.370;2023-02-04T03:14:08;7.70;;;4.90;;
34695;SDS011;20918;51.138;17.370;2023-02-04T03:17:14;6.90;;;4.80;;
34695;SDS011;20918;51.138;17.370;2023-02-04T03:20:25;5.40;;;4.60;;
34695;SDS011;20918;51.138;17.370;2023-02-04T03:23:30;6.20;;;3.80;;
34695;SDS011;20918;51.138;17.370;2023-02-04T03:26:33;8.70;;;3.50;;
34695;SDS011;20918;51.138;17.370;2023-02-04T03:29:40;3.70;;;3.30;;
34695;SDS011;20918;51.138;17.370;2023-02-04T03:32:46;4.60;;;3.20;;
34695;SDS011;20918;51.138;17.370;2023-02-04T03:35:49;3.80;;;3.30;;
34695;SDS011;20918;51.138;17.370;2023-02-04T03:38:56;4.10;;;3.40;;
34695;SDS011;20918;51.138;17.370;2023-02-04T03:41:58;4.70;;;3.40;;
34695;SDS011;20918;51.138;17.370;2023-02-04T03:45:04;4.70;;;3.50;;
34695;SDS011;20918;51.138;17.370;2023-02-04T03:48:08;7.20;;;4.40;;
34695;SDS011;20918;51.138;17.370;2023-02-04T03:51:10;4.80;;;3.80;;
34695;SDS011;20918;51.138;17.370;2023-02-04T03:54:13;5.50;;;4.10;;
34695;SDS011;20918;51.138;17.370;2023-02-04T03:57:19;4.80;;;3.90;;
34695;SDS011;20918;51.138;17.370;2023-02-04T04:00:21;6.80;;;4.60;;
34695;SDS011;20918;51.138;17.370;2023-02-04T04:03:26;6.60;;;5.00;;
34695;SDS011;20918;51.138;17.370;2023-02-04T04:09:29;7.50;;;4.70;;
34695;SDS011;20918;51.138;17.370;2023-02-04T04:12:30;7.10;;;4.80;;
34695;SDS011;20918;51.138;17.370;2023-02-04T04:15:33;7.80;;;5.10;;
34695;SDS011;20918;51.138;17.370;2023-02-04T04:18:35;7.60;;;5.20;;
34695;SDS011;20918;51.138;17.370;2023-02-04T04:24:37;6.60;;;5.10;;
34695;SDS011;20918;51.138;17.370;2023-02-04T04:27:39;6.90;;;5.50;;
34695;SDS011;20918;51.138;17.370;2023-02-04T04:30:40;12.20;;;6.50;;
34695;SDS011;20918;51.138;17.370;2023-02-04T04:33:42;8.60;;;6.60;;
34695;SDS011;20918;51.138;17.370;2023-02-04T04:36:44;10.00;;;6.80;;
34695;SDS011;20918;51.138;17.370;2023-02-04T04:39:45;11.20;;;7.50;;
34695;SDS011;20918;51.138;17.370;2023-02-04T04:42:47;10.50;;;7.30;;
34695;SDS011;20918;51.138;17.370;2023-02-04T04:45:49;12.00;;;8.10;;
34695;SDS011;20918;51.138;17.370;2023-02-04T04:48:51;14.00;;;7.90;;
34695;SDS011;20918;51.138;17.370;2023-02-04T04:51:53;12.20;;;8.20;;
34695;SDS011;20918;51.138;17.370;2023-02-04T04:54:54;12.60;;;7.70;;
34695;SDS011;20918;51.138;17.370;2023-02-04T04:57:58;12.80;;;8.00;;
34695;SDS011;20918;51.138;17.370;2023-02-04T05:01:01;12.60;;;8.10;;
34695;SDS011;20918;51.138;17.370;2023-02-04T05:04:03;12.10;;;7.70;;
34695;SDS011;20918;51.138;17.370;2023-02-04T05:07:05;12.70;;;8.40;;
34695;SDS011;20918;51.138;17.370;2023-02-04T05:10:07;10.30;;;7.80;;
34695;SDS011;20918;51.138;17.370;2023-02-04T05:13:09;11.90;;;8.30;;
34695;SDS011;20918;51.138;17.370;2023-02-04T05:16:11;11.30;;;8.30;;
34695;SDS011;20918;51.138;17.370;2023-02-04T05:19:12;11.80;;;7.80;;
34695;SDS011;20918;51.138;17.370;2023-02-04T05:22:13;9.80;;;7.70;;
34695;SDS011;20918;51.138;17.370;2023-02-04T05:25:14;13.50;;;8.70;;
34695;SDS011;20918;51.138;17.370;2023-02-04T05:28:18;11.50;;;7.80;;
34695;SDS011;20918;51.138;17.370;2023-02-04T05:31:19;15.10;;;8.30;;
34695;SDS011;20918;51.138;17.370;2023-02-04T05:34:23;12.90;;;8.90;;
34695;SDS011;20918;51.138;17.370;2023-02-04T05:37:24;9.90;;;7.20;;
34695;SDS011;20918;51.138;17.370;2023-02-04T05:43:26;9.40;;;7.50;;
34695;SDS011;20918;51.138;17.370;2023-02-04T05:46:28;12.30;;;7.90;;
34695;SDS011;20918;51.138;17.370;2023-02-04T05:49:29;13.10;;;9.00;;
34695;SDS011;20918;51.138;17.370;2023-02-04T05:52:30;14.60;;;8.10;;
34695;SDS011;20918;51.138;17.370;2023-02-04T05:55:32;12.30;;;8.50;;
34695;SDS011;20918;51.138;17.370;2023-02-04T05:58:34;14.30;;;8.40;;
34695;SDS011;20918;51.138;17.370;2023-02-04T06:01:37;10.90;;;7.70;;
34695;SDS011;20918;51.138;17.370;2023-02-04T06:04:42;11.30;;;8.30;;
34695;SDS011;20918;51.138;17.370;2023-02-04T06:07:47;11.80;;;7.50;;
34695;SDS011;20918;51.138;17.370;2023-02-04T06:10:51;12.40;;;7.60;;
34695;SDS011;20918;51.138;17.370;2023-02-04T06:13:55;11.70;;;7.70;;
34695;SDS011;20918;51.138;17.370;2023-02-04T06:17:03;11.40;;;8.10;;
34695;SDS011;20918;51.138;17.370;2023-02-04T06:20:07;11.10;;;7.70;;
34695;SDS011;20918;51.138;17.370;2023-02-04T06:23:11;13.50;;;8.30;;
34695;SDS011;20918;51.138;17.370;2023-02-04T06:26:16;13.40;;;8.30;;
34695;SDS011;20918;51.138;17.370;2023-02-04T06:29:20;13.50;;;8.70;;
34695;SDS011;20918;51.138;17.370;2023-02-04T06:32:23;11.90;;;8.20;;
34695;SDS011;20918;51.138;17.370;2023-02-04T06:35:24;11.70;;;8.00;;
34695;SDS011;20918;51.138;17.370;2023-02-04T06:38:29;12.90;;;7.70;;
34695;SDS011;20918;51.138;17.370;2023-02-04T06:41:34;15.00;;;9.50;;
34695;SDS011;20918;51.138;17.370;2023-02-04T06:44:36;16.20;;;8.50;;
34695;SDS011;20918;51.138;17.370;2023-02-04T06:47:38;11.90;;;8.20;;
34695;SDS011;20918;51.138;17.370;2023-02-04T06:50:41;12.90;;;9.30;;
34695;SDS011;20918;51.138;17.370;2023-02-04T06:53:46;11.10;;;7.90;;
34695;SDS011;20918;51.138;17.370;2023-02-04T06:56:48;10.50;;;7.60;;
34695;SDS011;20918;51.138;17.370;2023-02-04T06:59:52;11.20;;;7.30;;
34695;SDS011;20918;51.138;17.370;2023-02-04T07:03:03;11.20;;;7.10;;
34695;SDS011;20918;51.138;17.370;2023-02-04T07:11:32;7.40;;;5.10;;
34695;SDS011;20918;51.138;17.370;2023-02-04T07:51:45;5.90;;;4.90;;
34695;SDS011;20918;51.138;17.370;2023-02-04T07:54:46;6.60;;;4.40;;
34695;SDS011;20918;51.138;17.370;2023-02-04T07:57:47;7.50;;;4.70;;
34695;SDS011;20918;51.138;17.370;2023-02-04T08:00:51;7.70;;;4.40;;
34695;SDS011;20918;51.138;17.370;2023-02-04T08:03:52;6.10;;;4.20;;
34695;SDS011;20918;51.138;17.370;2023-02-04T08:06:55;6.70;;;4.00;;
34695;SDS011;20918;51.138;17.370;2023-02-04T08:09:55;5.70;;;4.30;;
34695;SDS011;20918;51.138;17.370;2023-02-04T08:12:56;5.70;;;3.70;;
34695;SDS011;20918;51.138;17.370;2023-02-04T08:15:57;5.40;;;3.70;;
34695;SDS011;20918;51.138;17.370;2023-02-04T08:19:00;6.40;;;4.70;;
34695;SDS011;20918;51.138;17.370;2023-02-04T08:22:09;7.20;;;4.00;;
34695;SDS011;20918;51.138;17.370;2023-02-04T08:25:12;7.10;;;4.80;;
34695;SDS011;20918;51.138;17.370;2023-02-04T08:28:13;7.50;;;4.20;;
34695;SDS011;20918;51.138;17.370;2023-02-04T08:31:14;6.20;;;3.70;;
34695;SDS011;20918;51.138;17.370;2023-02-04T08:34:14;6.10;;;3.90;;
34695;SDS011;20918;51.138;17.370;2023-02-04T08:37:15;6.30;;;4.00;;
34695;SDS011;20918;51.138;17.370;2023-02-04T08:40:16;6.40;;;4.40;;
34695;SDS011;20918;51.138;17.370;2023-02-04T08:43:16;7.70;;;4.70;;
34695;SDS011;20918;51.138;17.370;2023-02-04T08:46:17;8.50;;;4.50;;
34695;SDS011;20918;51.138;17.370;2023-02-04T08:49:18;7.60;;;4.70;;
34695;SDS011;20918;51.138;17.370;2023-02-04T08:52:18;6.10;;;4.10;;
34695;SDS011;20918;51.138;17.370;2023-02-04T08:55:19;7.40;;;4.70;;
34695;SDS011;20918;51.138;17.370;2023-02-04T08:58:19;6.70;;;4.60;;
34695;SDS011;20918;51.138;17.370;2023-02-04T09:01:20;6.60;;;3.90;;
34695;SDS011;20918;51.138;17.370;2023-02-04T09:04:22;5.90;;;4.10;;
34695;SDS011;20918;51.138;17.370;2023-02-04T09:07:23;5.40;;;4.00;;
34695;SDS011;20918;51.138;17.370;2023-02-04T09:10:24;10.40;;;4.50;;
34695;SDS011;20918;51.138;17.370;2023-02-04T09:13:24;8.70;;;4.10;;
34695;SDS011;20918;51.138;17.370;2023-02-04T09:16:25;7.30;;;4.80;;
34695;SDS011;20918;51.138;17.370;2023-02-04T09:19:26;9.10;;;4.60;;
34695;SDS011;20918;51.138;17.370;2023-02-04T09:22:26;7.40;;;3.90;;
34695;SDS011;20918;51.138;17.370;2023-02-04T09:25:27;7.90;;;4.60;;
34695;SDS011;20918;51.138;17.370;2023-02-04T09:28:27;9.00;;;4.40;;
34695;SDS011;20918;51.138;17.370;2023-02-04T09:31:28;7.60;;;4.40;;
34695;SDS011;20918;51.138;17.370;2023-02-04T09:34:28;10.30;;;4.10;;
34695;SDS011;20918;51.138;17.370;2023-02-04T09:37:29;8.20;;;4.80;;
34695;SDS011;20918;51.138;17.370;2023-02-04T09:40:30;9.10;;;5.10;;
34695;SDS011;20918;51.138;17.370;2023-02-04T09:43:40;10.10;;;5.40;;
34695;SDS011;20918;51.138;17.370;2023-02-04T09:46:46;6.00;;;3.80;;
34695;SDS011;20918;51.138;17.370;2023-02-04T09:49:50;8.60;;;4.50;;
34695;SDS011;20918;51.138;17.370;2023-02-04T09:52:51;6.90;;;4.20;;
34695;SDS011;20918;51.138;17.370;2023-02-04T09:55:56;7.60;;;4.20;;
34695;SDS011;20918;51.138;17.370;2023-02-04T10:02:01;6.90;;;4.30;;
34695;SDS011;20918;51.138;17.370;2023-02-04T10:05:14;8.10;;;4.40;;
34695;SDS011;20918;51.138;17.370;2023-02-04T10:08:18;6.30;;;4.20;;
34695;SDS011;20918;51.138;17.370;2023-02-04T10:11:20;9.90;;;4.80;;
34695;SDS011;20918;51.138;17.370;2023-02-04T10:14:23;7.80;;;4.50;;
34695;SDS011;20918;51.138;17.370;2023-02-04T10:17:24;5.50;;;4.00;;
34695;SDS011;20918;51.138;17.370;2023-02-04T10:20:25;6.80;;;4.60;;
34695;SDS011;20918;51.138;17.370;2023-02-04T10:23:26;7.80;;;5.10;;
34695;SDS011;20918;51.138;17.370;2023-02-04T10:26:27;8.10;;;4.50;;
34695;SDS011;20918;51.138;17.370;2023-02-04T10:29:29;7.40;;;4.50;;
34695;SDS011;20918;51.138;17.370;2023-02-04T10:32:30;7.80;;;5.40;;
34695;SDS011;20918;51.138;17.370;2023-02-04T10:35:32;13.50;;;6.70;;
34695;SDS011;20918;51.138;17.370;2023-02-04T10:38:44;11.10;;;6.00;;
34695;SDS011;20918;51.138;17.370;2023-02-04T10:41:59;9.30;;;4.90;;
34695;SDS011;20918;51.138;17.370;2023-02-04T10:45:00;9.90;;;5.60;;
34695;SDS011;20918;51.138;17.370;2023-02-04T10:48:01;6.50;;;4.60;;
34695;SDS011;20918;51.138;17.370;2023-02-04T10:51:01;12.20;;;4.20;;
34695;SDS011;20918;51.138;17.370;2023-02-04T10:54:04;5.10;;;3.40;;
34695;SDS011;20918;51.138;17.370;2023-02-04T10:57:30;5.30;;;3.90;;
34695;SDS011;20918;51.138;17.370;2023-02-04T11:00:35;4.80;;;3.40;;
34695;SDS011;20918;51.138;17.370;2023-02-04T11:03:36;7.20;;;5.00;;
34695;SDS011;20918;51.138;17.370;2023-02-04T11:06:37;10.80;;;4.70;;
34695;SDS011;20918;51.138;17.370;2023-02-04T11:09:42;6.80;;;4.60;;
34695;SDS011;20918;51.138;17.370;2023-02-04T11:16:06;10.50;;;4.30;;
34695;SDS011;20918;51.138;17.370;2023-02-04T11:19:14;5.30;;;3.60;;
34695;SDS011;20918;51.138;17.370;2023-02-04T11:22:36;6.20;;;3.20;;
34695;SDS011;20918;51.138;17.370;2023-02-04T11:25:42;7.90;;;3.20;;
34695;SDS011;20918;51.138;17.370;2023-02-04T11:34:51;5.90;;;3.70;;
34695;SDS011;20918;51.138;17.370;2023-02-04T11:37:55;8.50;;;3.50;;
34695;SDS011;20918;51.138;17.370;2023-02-04T11:40:56;8.70;;;3.80;;
34695;SDS011;20918;51.138;17.370;2023-02-04T11:44:01;6.20;;;2.70;;
34695;SDS011;20918;51.138;17.370;2023-02-04T11:47:05;4.40;;;2.80;;
34695;SDS011;20918;51.138;17.370;2023-02-04T11:50:22;4.00;;;2.60;;
34695;SDS011;20918;51.138;17.370;2023-02-04T11:53:31;6.60;;;2.80;;
34695;SDS011;20918;51.138;17.370;2023-02-04T11:56:33;3.90;;;2.70;;
34695;SDS011;20918;51.138;17.370;2023-02-04T11:59:33;5.60;;;2.40;;
34695;SDS011;20918;51.138;17.370;2023-02-04T12:02:41;7.40;;;4.20;;
34695;SDS011;20918;51.138;17.370;2023-02-04T12:05:46;9.60;;;6.00;;
34695;SDS011;20918;51.138;17.370;2023-02-04T12:08:48;5.50;;;3.20;;
34695;SDS011;20918;51.138;17.370;2023-02-04T12:11:53;8.10;;;2.80;;
34695;SDS011;20918;51.138;17.370;2023-02-04T12:15:01;6.30;;;3.20;;
34695;SDS011;20918;51.138;17.370;2023-02-04T12:18:07;3.80;;;2.20;;
34695;SDS011;20918;51.138;17.370;2023-02-04T12:21:11;8.20;;;3.00;;
34695;SDS011;20918;51.138;17.370;2023-02-04T12:24:13;4.70;;;2.60;;
34695;SDS011;20918;51.138;17.370;2023-02-04T12:27:14;4.00;;;2.80;;
34695;SDS011;20918;51.138;17.370;2023-02-04T12:30:14;9.60;;;4.70;;
34695;SDS011;20918;51.138;17.370;2023-02-04T12:33:17;10.20;;;4.90;;
34695;SDS011;20918;51.138;17.370;2023-02-04T12:36:18;8.50;;;4.50;;
34695;SDS011;20918;51.138;17.370;2023-02-04T12:39:19;7.80;;;4.00;;
34695;SDS011;20918;51.138;17.370;2023-02-04T12:42:20;7.10;;;2.90;;
34695;SDS011;20918;51.138;17.370;2023-02-04T12:45:20;6.90;;;2.70;;
34695;SDS011;20918;51.138;17.370;2023-02-04T12:48:21;4.60;;;2.30;;
34695;SDS011;20918;51.138;17.370;2023-02-04T12:51:22;6.10;;;2.60;;
34695;SDS011;20918;51.138;17.370;2023-02-04T12:54:23;3.70;;;2.50;;
34695;SDS011;20918;51.138;17.370;2023-02-04T13:00:24;2.70;;;1.80;;
34695;SDS011;20918;51.138;17.370;2023-02-04T13:03:26;5.90;;;2.80;;
34695;SDS011;20918;51.138;17.370;2023-02-04T13:06:27;3.60;;;2.50;;
34695;SDS011;20918;51.138;17.370;2023-02-04T13:09:27;5.70;;;3.20;;
34695;SDS011;20918;51.138;17.370;2023-02-04T13:12:28;7.00;;;3.40;;
34695;SDS011;20918;51.138;17.370;2023-02-04T13:15:28;7.70;;;3.20;;
34695;SDS011;20918;51.138;17.370;2023-02-04T13:18:29;8.80;;;3.80;;
34695;SDS011;20918;51.138;17.370;2023-02-04T13:21:30;7.10;;;3.00;;
34695;SDS011;20918;51.138;17.370;2023-02-04T13:24:30;4.90;;;2.30;;
34695;SDS011;20918;51.138;17.370;2023-02-04T13:27:31;11.60;;;3.60;;
34695;SDS011;20918;51.138;17.370;2023-02-04T13:30:32;5.80;;;3.20;;
34695;SDS011;20918;51.138;17.370;2023-02-04T13:33:32;5.60;;;3.10;;
34695;SDS011;20918;51.138;17.370;2023-02-04T13:36:33;3.40;;;2.60;;
34695;SDS011;20918;51.138;17.370;2023-02-04T13:39:33;4.20;;;2.60;;
34695;SDS011;20918;51.138;17.370;2023-02-04T13:42:34;4.10;;;2.30;;
34695;SDS011;20918;51.138;17.370;2023-02-04T13:45:35;4.60;;;2.80;;
34695;SDS011;20918;51.138;17.370;2023-02-04T13:48:35;6.50;;;3.20;;
34695;SDS011;20918;51.138;17.370;2023-02-04T13:51:36;5.90;;;3.10;;
34695;SDS011;20918;51.138;17.370;2023-02-04T13:54:36;4.90;;;2.80;;
34695;SDS011;20918;51.138;17.370;2023-02-04T13:57:37;6.10;;;2.30;;
34695;SDS011;20918;51.138;17.370;2023-02-04T14:00:37;3.90;;;2.20;;
34695;SDS011;20918;51.138;17.370;2023-02-04T14:03:38;4.40;;;2.30;;
34695;SDS011;20918;51.138;17.370;2023-02-04T14:06:39;4.30;;;2.20;;
34695;SDS011;20918;51.138;17.370;2023-02-04T14:09:42;4.40;;;2.10;;
34695;SDS011;20918;51.138;17.370;2023-02-04T14:12:43;5.80;;;2.20;;
34695;SDS011;20918;51.138;17.370;2023-02-04T14:15:44;5.90;;;4.20;;
34695;SDS011;20918;51.138;17.370;2023-02-04T14:18:44;7.50;;;3.00;;
34695;SDS011;20918;51.138;17.370;2023-02-04T14:21:45;5.30;;;2.60;;
34695;SDS011;20918;51.138;17.370;2023-02-04T14:24:46;5.90;;;3.10;;
34695;SDS011;20918;51.138;17.370;2023-02-04T14:27:49;25.90;;;10.80;;
34695;SDS011;20918;51.138;17.370;2023-02-04T14:30:50;23.90;;;11.90;;
34695;SDS011;20918;51.138;17.370;2023-02-04T14:33:53;8.10;;;4.50;;
34695;SDS011;20918;51.138;17.370;2023-02-04T14:36:55;5.50;;;3.90;;
34695;SDS011;20918;51.138;17.370;2023-02-04T14:39:55;5.10;;;3.50;;
34695;SDS011;20918;51.138;17.370;2023-02-04T14:42:56;7.00;;;4.50;;
34695;SDS011;20918;51.138;17.370;2023-02-04T14:45:57;10.90;;;5.40;;
34695;SDS011;20918;51.138;17.370;2023-02-04T14:48:57;9.60;;;4.70;;
34695;SDS011;20918;51.138;17.370;2023-02-04T14:51:59;6.00;;;4.00;;
34695;SDS011;20918;51.138;17.370;2023-02-04T14:55:00;9.10;;;4.50;;
34695;SDS011;20918;51.138;17.370;2023-02-04T14:58:00;7.00;;;4.00;;
34695;SDS011;20918;51.138;17.370;2023-02-04T15:01:01;7.40;;;4.10;;
34695;SDS011;20918;51.138;17.370;2023-02-04T15:04:02;7.90;;;4.80;;
34695;SDS011;20918;51.138;17.370;2023-02-04T15:07:03;8.30;;;4.00;;
34695;SDS011;20918;51.138;17.370;2023-02-04T15:10:04;3.50;;;2.70;;
34695;SDS011;20918;51.138;17.370;2023-02-04T15:13:05;6.90;;;3.10;;
34695;SDS011;20918;51.138;17.370;2023-02-04T15:16:06;13.00;;;6.90;;
34695;SDS011;20918;51.138;17.370;2023-02-04T15:19:06;9.20;;;4.40;;
34695;SDS011;20918;51.138;17.370;2023-02-04T15:22:07;7.40;;;4.20;;
34695;SDS011;20918;51.138;17.370;2023-02-04T15:25:08;4.90;;;3.40;;
34695;SDS011;20918;51.138;17.370;2023-02-04T15:28:09;13.60;;;7.80;;
34695;SDS011;20918;51.138;17.370;2023-02-04T15:31:10;13.10;;;7.50;;
34695;SDS011;20918;51.138;17.370;2023-02-04T15:34:11;16.20;;;7.40;;
34695;SDS011;20918;51.138;17.370;2023-02-04T15:37:12;26.10;;;10.20;;
34695;SDS011;20918;51.138;17.370;2023-02-04T15:40:13;10.70;;;5.10;;
34695;SDS011;20918;51.138;17.370;2023-02-04T15:46:14;3.80;;;2.80;;
34695;SDS011;20918;51.138;17.370;2023-02-04T15:49:15;6.60;;;4.10;;
34695;SDS011;20918;51.138;17.370;2023-02-04T15:52:15;8.70;;;4.30;;
34695;SDS011;20918;51.138;17.370;2023-02-04T15:55:16;8.70;;;4.60;;
34695;SDS011;20918;51.138;17.370;2023-02-04T15:58:17;8.20;;;4.60;;
34695;SDS011;20918;51.138;17.370;2023-02-04T16:01:18;9.80;;;4.80;;
34695;SDS011;20918;51.138;17.370;2023-02-04T16:07:19;11.10;;;5.80;;
34695;SDS011;20918;51.138;17.370;2023-02-04T16:10:20;8.10;;;5.50;;
34695;SDS011;20918;51.138;17.370;2023-02-04T16:13:24;8.80;;;4.80;;
34695;SDS011;20918;51.138;17.370;2023-02-04T16:16:24;10.80;;;5.30;;
34695;SDS011;20918;51.138;17.370;2023-02-04T16:19:25;12.50;;;5.00;;
34695;SDS011;20918;51.138;17.370;2023-02-04T16:22:26;11.70;;;6.10;;
34695;SDS011;20918;51.138;17.370;2023-02-04T16:25:26;11.70;;;5.30;;
34695;SDS011;20918;51.138;17.370;2023-02-04T16:28:27;12.40;;;5.90;;
34695;SDS011;20918;51.138;17.370;2023-02-04T16:31:27;24.80;;;9.10;;
34695;SDS011;20918;51.138;17.370;2023-02-04T16:34:28;17.30;;;6.40;;
34695;SDS011;20918;51.138;17.370;2023-02-04T16:37:29;14.00;;;5.90;;
34695;SDS011;20918;51.138;17.370;2023-02-04T16:40:30;17.50;;;7.50;;
34695;SDS011;20918;51.138;17.370;2023-02-04T16:43:31;22.00;;;10.10;;
34695;SDS011;20918;51.138;17.370;2023-02-04T16:46:31;18.60;;;9.40;;
34695;SDS011;20918;51.138;17.370;2023-02-04T16:49:33;14.90;;;8.40;;
34695;SDS011;20918;51.138;17.370;2023-02-04T16:52:34;15.10;;;7.50;;
34695;SDS011;20918;51.138;17.370;2023-02-04T16:55:35;14.10;;;7.50;;
34695;SDS011;20918;51.138;17.370;2023-02-04T16:58:36;14.90;;;6.80;;
34695;SDS011;20918;51.138;17.370;2023-02-04T17:01:39;11.80;;;5.90;;
34695;SDS011;20918;51.138;17.370;2023-02-04T17:04:39;11.90;;;7.00;;
34695;SDS011;20918;51.138;17.370;2023-02-04T17:07:41;18.70;;;7.60;;
34695;SDS011;20918;51.138;17.370;2023-02-04T17:10:41;16.30;;;7.20;;
34695;SDS011;20918;51.138;17.370;2023-02-04T17:14:11;15.80;;;7.80;;
34695;SDS011;20918;51.138;17.370;2023-02-04T17:17:15;17.80;;;8.10;;
34695;SDS011;20918;51.138;17.370;2023-02-04T17:20:17;16.20;;;7.60;;
34695;SDS011;20918;51.138;17.370;2023-02-04T17:23:18;15.10;;;7.60;;
34695;SDS011;20918;51.138;17.370;2023-02-04T17:26:19;17.60;;;6.40;;
34695;SDS011;20918;51.138;17.370;2023-02-04T17:29:19;12.80;;;6.50;;
34695;SDS011;20918;51.138;17.370;2023-02-04T17:32:23;9.60;;;5.10;;
34695;SDS011;20918;51.138;17.370;2023-02-04T17:35:24;12.90;;;5.00;;
34695;SDS011;20918;51.138;17.370;2023-02-04T17:38:26;9.50;;;4.20;;
34695;SDS011;20918;51.138;17.370;2023-02-04T17:41:27;8.00;;;5.30;;
34695;SDS011;20918;51.138;17.370;2023-02-04T17:44:28;17.20;;;5.20;;
34695;SDS011;20918;51.138;17.370;2023-02-04T17:47:28;11.50;;;5.10;;
34695;SDS011;20918;51.138;17.370;2023-02-04T17:50:29;10.40;;;5.30;;
34695;SDS011;20918;51.138;17.370;2023-02-04T17:53:33;8.60;;;5.10;;
34695;SDS011;20918;51.138;17.370;2023-02-04T17:56:35;12.50;;;5.70;;
34695;SDS011;20918;51.138;17.370;2023-02-04T17:59:36;10.90;;;6.00;;
34695;SDS011;20918;51.138;17.370;2023-02-04T18:02:36;15.90;;;6.40;;
34695;SDS011;20918;51.138;17.370;2023-02-04T18:08:41;15.60;;;6.40;;
34695;SDS011;20918;51.138;17.370;2023-02-04T18:11:42;18.40;;;8.00;;
34695;SDS011;20918;51.138;17.370;2023-02-04T18:14:44;18.30;;;7.40;;
34695;SDS011;20918;51.138;17.370;2023-02-04T18:17:46;13.20;;;6.10;;
34695;SDS011;20918;51.138;17.370;2023-02-04T18:24:34;17.60;;;7.50;;
34695;SDS011;20918;51.138;17.370;2023-02-04T18:27:43;14.40;;;5.40;;
34695;SDS011;20918;51.138;17.370;2023-02-04T18:30:44;9.70;;;4.80;;
34695;SDS011;20918;51.138;17.370;2023-02-04T18:33:47;8.10;;;4.50;;
34695;SDS011;20918;51.138;17.370;2023-02-04T18:39:49;8.90;;;3.70;;
34695;SDS011;20918;51.138;17.370;2023-02-04T18:42:51;8.30;;;4.00;;
34695;SDS011;20918;51.138;17.370;2023-02-04T18:46:09;6.80;;;2.70;;
34695;SDS011;20918;51.138;17.370;2023-02-04T18:49:28;5.70;;;3.20;;
34695;SDS011;20918;51.138;17.370;2023-02-04T18:52:34;6.00;;;3.10;;
34695;SDS011;20918;51.138;17.370;2023-02-04T18:55:38;10.30;;;3.90;;
34695;SDS011;20918;51.138;17.370;2023-02-04T18:58:40;7.00;;;3.40;;
34695;SDS011;20918;51.138;17.370;2023-02-04T19:01:45;7.00;;;3.50;;
34695;SDS011;20918;51.138;17.370;2023-02-04T19:04:48;11.70;;;4.80;;
34695;SDS011;20918;51.138;17.370;2023-02-04T19:07:48;18.10;;;5.60;;
34695;SDS011;20918;51.138;17.370;2023-02-04T19:10:51;12.20;;;4.70;;
34695;SDS011;20918;51.138;17.370;2023-02-04T19:13:54;13.70;;;3.60;;
34695;SDS011;20918;51.138;17.370;2023-02-04T19:17:19;11.00;;;4.00;;
34695;SDS011;20918;51.138;17.370;2023-02-04T19:20:21;10.10;;;3.80;;
34695;SDS011;20918;51.138;17.370;2023-02-04T19:23:23;11.00;;;4.10;;
34695;SDS011;20918;51.138;17.370;2023-02-04T19:26:33;13.60;;;4.60;;
34695;SDS011;20918;51.138;17.370;2023-02-04T19:29:39;14.30;;;4.40;;
34695;SDS011;20918;51.138;17.370;2023-02-04T19:32:43;7.30;;;3.70;;